ZIX weather

Zhigansk Airport
Zhigansk, Sakha (Yakutia) Republic, Russia

Public forecast

Using degrees Celsius for public forecast. Weather courtesy of forecast.io.

METAR (pilot weather report)

Report is more than 6 hours old.

Closest report is Polyarny Airport, 270.9 nm (501.7 km) W. Retrieved 2016/09/05 11:30 UTC (2 years ago):

UERP 051130Z 00000MPS CAVOK 07/05 Q1020 R35/290150 NOSIG RMK QFE721

TAF (pilot weather forecast)

Closest forecast is Polyarny Airport, 270.9 nm (501.7 km) W. Retrieved 2019/02/19 15:21 UTC (0 seconds ago):

TAF UERP 191400Z 1915/2015 24004MPS CAVOK TEMPO 1918/1924 2000 BR